createdAt,value
2018-06-23T06:36:05.224Z,4.50
2018-06-23T06:37:05.807Z,4.40
2018-06-23T06:38:06.417Z,4.30
2018-06-23T06:39:07.029Z,3.90
2018-06-23T06:40:07.613Z,4.30
2018-06-23T06:41:08.441Z,4.00
2018-06-23T06:42:09.079Z,4.20
2018-06-23T06:43:09.701Z,4.00
2018-06-23T06:44:10.321Z,4.00
2018-06-23T06:45:10.917Z,4.40
2018-06-23T06:46:11.506Z,4.20
2018-06-23T06:47:12.098Z,4.30
2018-06-23T06:48:12.703Z,3.70
2018-06-23T06:49:13.310Z,4.40
2018-06-23T06:50:13.918Z,3.70
2018-06-23T06:51:14.511Z,4.10
2018-06-23T06:52:15.115Z,4.00
2018-06-23T06:53:15.701Z,4.00
2018-06-23T06:54:16.321Z,4.20
2018-06-23T06:55:16.920Z,4.40
2018-06-23T06:56:17.570Z,3.80
2018-06-23T06:57:18.173Z,3.90
2018-06-23T06:58:18.886Z,4.10
2018-06-23T06:59:19.510Z,3.70
2018-06-23T07:00:20.084Z,4.00
2018-06-23T07:01:20.712Z,4.30
2018-06-23T07:02:21.305Z,4.10
2018-06-23T07:03:22.207Z,4.30
2018-06-23T07:04:23.032Z,4.20
2018-06-23T07:05:23.639Z,4.00
2018-06-23T07:06:24.252Z,3.90
2018-06-23T07:07:24.848Z,3.90
2018-06-23T07:08:25.515Z,3.60
2018-06-23T07:09:26.124Z,4.00
2018-06-23T07:10:26.756Z,3.90
2018-06-23T07:11:27.402Z,4.00
2018-06-23T07:12:27.999Z,3.90
2018-06-23T07:13:28.679Z,3.90
2018-06-23T07:14:29.510Z,3.90
2018-06-23T07:15:30.165Z,4.10
2018-06-23T07:16:30.827Z,3.80
2018-06-23T07:18:31.768Z,4.10
2018-06-23T07:19:32.414Z,4.20
2018-06-23T07:20:34.358Z,3.90
2018-06-23T07:21:36.239Z,4.10
2018-06-23T07:22:37.336Z,5.10
2018-06-23T07:23:38.039Z,4.00
2018-06-23T07:24:38.727Z,5.30
2018-06-23T07:25:39.496Z,4.50
2018-06-23T07:26:40.093Z,4.00
2018-06-23T07:27:40.696Z,4.20
2018-06-23T07:28:41.364Z,4.00
2018-06-23T07:29:41.951Z,4.30
2018-06-23T07:30:42.738Z,4.10
2018-06-23T07:31:43.558Z,3.80
2018-06-23T07:32:44.262Z,4.10
2018-06-23T07:33:48.961Z,3.70
2018-06-23T07:34:49.989Z,3.70
2018-06-23T07:35:53.630Z,3.90
2018-06-23T07:36:56.932Z,3.90
2018-06-23T07:37:58.508Z,4.00
2018-06-23T07:38:59.479Z,3.90
2018-06-23T07:40:00.112Z,3.80
2018-06-23T07:41:00.725Z,4.00
2018-06-23T07:42:01.342Z,4.00
2018-06-23T07:43:02.065Z,5.70
2018-06-23T07:44:03.404Z,5.70
2018-06-23T07:45:04.242Z,6.00
2018-06-23T07:46:04.885Z,5.10
2018-06-23T07:47:06.160Z,4.30
2018-06-23T07:48:06.787Z,4.40
2018-06-23T07:49:07.447Z,4.40
2018-06-23T07:50:08.419Z,4.20
2018-06-23T07:51:10.802Z,4.40
2018-06-23T07:52:11.500Z,4.00
2018-06-23T07:53:12.138Z,4.40
2018-06-23T07:54:12.760Z,3.80
2018-06-23T07:55:14.535Z,4.50
2018-06-23T07:57:15.453Z,4.50
2018-06-23T07:58:16.143Z,4.20
2018-06-23T07:59:16.748Z,3.90
2018-06-23T08:00:17.379Z,4.20
2018-06-23T08:01:19.579Z,4.00
2018-06-23T08:02:20.211Z,4.30
2018-06-23T08:03:55.842Z,4.40
2018-06-23T08:04:56.526Z,4.20
2018-06-23T08:06:00.135Z,4.20
2018-06-23T08:07:07.894Z,4.80
2018-06-23T08:08:08.484Z,4.60
2018-06-23T08:09:09.383Z,4.40
2018-06-23T08:10:10.213Z,5.00
2018-06-23T08:13:24.103Z,4.00
2018-06-23T08:14:50.977Z,4.10
2018-06-23T08:16:22.757Z,4.10
2018-06-23T08:19:29.057Z,4.10
2018-06-23T08:19:53.316Z,5.40
2018-06-23T08:20:56.478Z,4.20
2018-06-23T08:21:57.255Z,4.00
2018-06-23T08:23:03.361Z,4.10
2018-06-23T08:24:04.035Z,4.90
2018-06-23T08:25:18.805Z,4.40
2018-06-23T08:26:44.211Z,4.90
2018-06-23T08:27:45.623Z,4.00
2018-06-23T08:28:51.919Z,4.30
2018-06-23T08:29:52.645Z,4.20
2018-06-23T08:30:53.544Z,4.30
2018-06-23T08:31:54.664Z,4.10
2018-06-23T08:32:56.354Z,4.20
2018-06-23T08:34:19.498Z,4.50
2018-06-23T08:35:24.675Z,4.20
2018-06-23T08:36:25.357Z,4.40
2018-06-23T08:37:26.346Z,4.50
2018-06-23T08:38:28.161Z,4.30
2018-06-23T08:39:38.124Z,4.10
2018-06-23T08:40:38.803Z,3.90
2018-06-23T08:41:40.248Z,3.90
2018-06-23T08:42:40.900Z,4.30
2018-06-23T08:43:41.769Z,4.20
2018-06-23T08:44:45.048Z,4.20
2018-06-23T08:46:18.635Z,3.30
2018-06-23T08:47:41.116Z,4.00
2018-06-23T08:48:41.823Z,3.60
2018-06-23T08:49:42.422Z,3.40
2018-06-23T08:50:43.054Z,3.60
2018-06-23T08:51:46.204Z,3.90
2018-06-23T08:52:55.981Z,3.90
2018-06-23T08:53:56.781Z,3.90
2018-06-23T08:54:57.488Z,3.70
2018-06-23T08:55:58.120Z,3.90
2018-06-23T08:56:58.790Z,3.70
2018-06-23T08:57:59.513Z,4.00
2018-06-23T08:59:00.171Z,3.90
2018-06-23T09:00:01.328Z,4.10
2018-06-23T09:01:01.995Z,3.80
2018-06-23T09:02:02.621Z,3.60
2018-06-23T09:03:03.243Z,3.70
2018-06-23T09:04:04.228Z,3.80
2018-06-23T09:05:05.939Z,4.20
2018-06-23T09:06:14.983Z,4.20
2018-06-23T09:07:15.689Z,4.20
2018-06-23T09:08:16.595Z,4.00
2018-06-23T09:09:17.404Z,4.10
2018-06-23T09:10:18.043Z,3.80
2018-06-23T09:11:18.715Z,4.00
2018-06-23T09:15:36.080Z,3.70
2018-06-23T09:17:22.549Z,4.00
2018-06-23T09:22:57.856Z,4.00
2018-06-23T09:23:58.627Z,4.00
2018-06-23T09:24:59.306Z,4.40
2018-06-23T09:26:00.026Z,3.60
2018-06-23T09:27:05.309Z,3.80
2018-06-23T09:28:08.163Z,3.90
2018-06-23T09:29:14.882Z,3.60
2018-06-23T09:30:15.504Z,3.80
2018-06-23T09:31:16.175Z,3.90
2018-06-23T09:32:16.955Z,4.00
2018-06-23T09:35:04.907Z,4.00
2018-06-23T09:36:08.545Z,4.00
2018-06-23T09:37:12.161Z,4.00
2018-06-23T09:38:12.843Z,3.80
2018-06-23T09:39:21.442Z,3.70
2018-06-23T09:40:22.420Z,3.60
2018-06-23T09:41:23.111Z,4.00
2018-06-23T09:42:23.885Z,3.50
2018-06-23T09:44:09.160Z,2.90
2018-06-23T09:47:30.369Z,2.70
2018-06-23T09:50:36.613Z,3.00
2018-06-23T09:51:37.302Z,3.00
2018-06-23T09:53:51.174Z,4.90
2018-06-23T09:54:59.248Z,3.60
2018-06-23T09:57:00.514Z,3.90
2018-06-23T09:58:01.133Z,4.10
2018-06-23T10:00:02.003Z,3.90
2018-06-23T10:01:02.620Z,3.20
2018-06-23T10:02:03.382Z,4.00
2018-06-23T10:03:04.061Z,3.50
2018-06-23T10:04:33.296Z,0.00
2018-06-23T10:06:10.580Z,3.10
2018-06-23T10:07:45.343Z,3.30
2018-06-23T10:08:45.984Z,3.60
2018-06-23T10:09:46.837Z,3.80
2018-06-23T10:10:47.473Z,3.80
2018-06-23T10:11:49.197Z,3.40
2018-06-23T10:12:49.789Z,3.60
2018-06-23T10:13:55.441Z,3.70
2018-06-23T10:14:56.696Z,3.50
2018-06-23T10:15:57.361Z,3.80
2018-06-23T10:16:57.943Z,3.90
2018-06-23T10:17:58.557Z,3.60
2018-06-23T10:18:59.617Z,3.40
2018-06-23T10:20:00.231Z,3.40
2018-06-23T10:21:00.944Z,3.60
2018-06-23T10:22:01.863Z,3.40
2018-06-23T10:23:02.427Z,3.50
2018-06-23T10:24:03.041Z,3.70
2018-06-23T10:25:03.725Z,3.50
2018-06-23T10:26:04.322Z,3.60
2018-06-23T10:27:04.991Z,3.20
2018-06-23T10:28:05.589Z,3.40
2018-06-23T10:29:06.226Z,3.30
2018-06-23T10:30:06.894Z,3.20
2018-06-23T10:31:07.492Z,3.30
2018-06-23T10:32:08.108Z,3.50
2018-06-23T10:33:08.766Z,3.60
2018-06-23T10:34:09.785Z,3.50
2018-06-23T10:35:10.864Z,3.90
2018-06-23T10:36:11.640Z,3.70
2018-06-23T10:37:12.243Z,3.90
2018-06-23T10:39:13.286Z,3.30
2018-06-23T10:40:13.932Z,3.40
2018-06-23T10:41:14.527Z,3.60
2018-06-23T10:42:15.305Z,3.70
2018-06-23T10:44:19.742Z,4.00
2018-06-23T10:45:22.447Z,3.90
2018-06-23T10:46:27.742Z,3.90
2018-06-23T10:47:53.891Z,3.70
2018-06-23T10:49:18.996Z,3.70
2018-06-23T10:50:48.702Z,3.90
2018-06-23T10:51:49.474Z,3.90
2018-06-23T10:53:26.471Z,3.80
2018-06-23T10:54:27.117Z,3.80
2018-06-23T10:55:35.903Z,3.30
2018-06-23T10:56:41.712Z,3.40
2018-06-23T10:57:48.097Z,3.20
2018-06-23T10:58:48.794Z,3.20
2018-06-23T10:59:49.448Z,3.90
2018-06-23T11:00:54.310Z,3.80
2018-06-23T11:01:55.024Z,3.50
2018-06-23T11:02:55.645Z,3.40
2018-06-23T11:03:56.322Z,3.20
2018-06-23T11:04:57.258Z,3.50
2018-06-23T11:06:59.537Z,3.50
2018-06-23T11:09:29.813Z,3.60
2018-06-23T11:10:30.552Z,3.20
2018-06-23T11:11:31.177Z,3.50
2018-06-23T11:12:31.795Z,3.50
2018-06-23T11:13:32.401Z,3.50
2018-06-23T11:14:32.988Z,3.40
2018-06-23T11:15:33.575Z,4.00
2018-06-23T11:16:34.258Z,3.90
2018-06-23T11:17:35.026Z,3.80
2018-06-23T11:18:35.636Z,3.60
2018-06-23T11:19:36.234Z,3.90
2018-06-23T11:20:38.553Z,3.90
2018-06-23T11:21:39.217Z,3.90
2018-06-23T11:22:39.950Z,3.60
2018-06-23T11:24:40.825Z,3.70
2018-06-23T11:25:48.123Z,3.70
2018-06-23T11:28:39.097Z,3.40
2018-06-23T11:30:40.072Z,3.90
2018-06-23T11:34:29.416Z,3.60
2018-06-23T11:35:30.061Z,3.50
2018-06-23T11:36:30.714Z,3.60
2018-06-23T11:38:31.717Z,3.30
2018-06-23T11:39:32.813Z,3.90
2018-06-23T11:40:33.495Z,3.80
2018-06-23T11:41:34.144Z,3.60
2018-06-23T11:42:34.796Z,3.60
2018-06-23T11:43:37.505Z,3.80
2018-06-23T11:44:38.398Z,3.50
2018-06-23T11:45:39.140Z,3.70
2018-06-23T11:46:39.792Z,3.80
2018-06-23T11:47:40.535Z,4.30
2018-06-23T11:48:49.356Z,3.90
2018-06-23T11:49:51.094Z,3.80
2018-06-23T11:51:52.182Z,3.80
2018-06-23T11:52:52.784Z,4.00
2018-06-23T11:53:55.624Z,3.70
2018-06-23T11:54:56.343Z,3.80
2018-06-23T11:55:56.934Z,3.60
2018-06-23T11:56:57.668Z,3.90
2018-06-23T11:57:58.462Z,3.50
2018-06-23T11:59:01.369Z,3.70
2018-06-23T12:00:01.991Z,3.70
2018-06-23T12:01:02.632Z,3.70
2018-06-23T12:02:03.350Z,3.60
2018-06-23T12:03:04.041Z,3.80
2018-06-23T12:04:13.126Z,4.00
2018-06-23T12:05:13.788Z,3.80
2018-06-23T12:06:14.408Z,4.20
2018-06-23T12:07:15.117Z,3.90
2018-06-23T12:09:19.234Z,3.90
2018-06-23T12:10:19.854Z,4.20
2018-06-23T12:11:21.441Z,4.00
2018-06-23T12:12:42.358Z,4.00
2018-06-23T12:13:43.120Z,4.20
2018-06-23T12:14:43.733Z,4.20
2018-06-23T12:15:44.387Z,3.90
2018-06-23T12:16:47.787Z,4.00
2018-06-23T12:18:48.711Z,4.40
2018-06-23T12:19:49.364Z,4.20
2018-06-23T12:20:49.970Z,4.40
2018-06-23T12:21:57.669Z,4.30
2018-06-23T12:22:58.592Z,3.90
2018-06-23T12:23:59.284Z,4.10
2018-06-23T12:25:00.037Z,3.90
2018-06-23T12:26:00.648Z,3.70
2018-06-23T12:27:02.680Z,3.70
2018-06-23T12:28:03.455Z,3.60
2018-06-23T12:29:42.513Z,3.90
2018-06-23T12:30:43.115Z,3.80
2018-06-23T12:31:43.713Z,3.50
2018-06-23T12:32:44.378Z,4.10
2018-06-23T12:33:45.039Z,3.50
2018-06-23T12:34:45.939Z,4.10
2018-06-23T12:35:49.895Z,4.40
2018-06-23T12:36:51.299Z,4.40
2018-06-23T12:39:28.900Z,4.40
2018-06-23T12:40:35.676Z,3.70
2018-06-23T12:41:36.647Z,3.80
2018-06-23T12:42:37.355Z,3.50
2018-06-23T12:43:38.396Z,3.50
2018-06-23T12:44:40.435Z,3.80
2018-06-23T12:45:42.603Z,3.40
2018-06-23T12:46:44.331Z,3.80
2018-06-23T12:47:45.085Z,3.90
2018-06-23T12:48:45.789Z,3.50
2018-06-23T12:49:46.437Z,4.00
2018-06-23T12:50:47.030Z,4.10
2018-06-23T12:52:05.940Z,3.40
2018-06-23T12:53:06.640Z,3.30
2018-06-23T12:54:19.597Z,3.70
2018-06-23T12:55:20.194Z,3.80
2018-06-23T12:56:21.211Z,4.70
2018-06-23T12:57:21.886Z,3.80
2018-06-23T12:58:22.493Z,4.20
2018-06-23T12:59:23.081Z,3.90
2018-06-23T13:00:23.673Z,4.50
2018-06-23T13:01:24.370Z,4.20
2018-06-23T13:02:28.125Z,4.30
2018-06-23T13:03:28.866Z,4.30
2018-06-23T13:04:33.780Z,4.30
2018-06-23T13:05:34.514Z,4.50
2018-06-23T13:06:40.033Z,4.10
2018-06-23T13:07:49.746Z,4.50
2018-06-23T13:08:50.383Z,4.50
2018-06-23T13:09:56.814Z,3.90
2018-06-23T13:12:45.985Z,4.00
2018-06-23T13:13:55.354Z,4.00
2018-06-23T13:14:55.954Z,4.00
2018-06-23T13:15:56.593Z,4.70
2018-06-23T13:17:25.520Z,4.40
2018-06-23T13:22:15.503Z,13.70
2018-06-23T13:25:07.197Z,12.00
2018-06-23T13:26:07.795Z,12.40
2018-06-23T13:27:08.383Z,12.30
2018-06-23T13:28:09.271Z,6.40
2018-06-23T13:29:09.825Z,5.10
2018-06-23T13:30:10.438Z,4.50
2018-06-23T13:31:11.005Z,4.60
2018-06-23T13:32:11.674Z,5.70
2018-06-23T13:33:22.959Z,5.50
2018-06-23T13:34:26.666Z,5.50
2018-06-23T13:35:27.256Z,5.50
2018-06-23T13:37:35.436Z,2.40
2018-06-23T13:38:31.738Z,3.70
2018-06-23T13:39:45.766Z,3.10
2018-06-23T13:41:21.080Z,5.20
2018-06-23T13:43:36.142Z,7.50
2018-06-23T13:46:21.637Z,3.90
2018-06-23T13:49:00.368Z,3.20
2018-06-23T13:52:41.405Z,2.90
2018-06-23T13:55:44.198Z,4.60
2018-06-23T14:00:55.326Z,2.40
2018-06-23T14:06:07.101Z,0.00
2018-06-23T14:17:13.672Z,2.90
2018-06-23T14:21:42.808Z,2.40
2018-06-23T14:25:21.313Z,5.80
2018-06-23T14:27:55.650Z,2.50
2018-06-23T14:31:28.352Z,2.70
2018-06-23T14:32:28.948Z,3.00
2018-06-23T14:34:19.541Z,5.30
2018-06-23T14:35:20.254Z,3.80
2018-06-23T14:36:21.963Z,3.30
2018-06-23T14:39:45.218Z,3.30
2018-06-23T14:40:45.965Z,3.50
2018-06-23T14:41:46.545Z,3.30
2018-06-23T14:45:09.693Z,2.60
2018-06-23T14:46:11.189Z,2.60
2018-06-23T14:47:11.850Z,3.40
2018-06-23T14:50:29.874Z,2.90
2018-06-23T14:53:04.918Z,3.20
2018-06-23T14:56:00.033Z,2.80
2018-06-23T14:59:53.808Z,3.80
2018-06-23T15:02:29.638Z,2.40
2018-06-23T15:06:03.092Z,2.60
2018-06-23T15:09:17.782Z,3.00
2018-06-23T15:12:14.850Z,2.60
2018-06-23T15:25:20.725Z,2.70
2018-06-23T15:28:28.028Z,2.60
2018-06-23T15:33:29.418Z,3.40
2018-06-23T15:37:55.314Z,2.90
2018-06-23T15:40:27.628Z,3.20
2018-06-23T15:44:17.465Z,3.50
2018-06-23T15:47:00.836Z,2.50
2018-06-23T15:53:25.935Z,3.40
2018-06-23T16:03:52.386Z,1.90
2018-06-23T16:22:50.734Z,2.80
2018-06-23T16:24:49.449Z,3.20
2018-06-23T16:27:37.323Z,3.00
2018-06-23T16:29:44.200Z,3.60
2018-06-23T16:30:44.811Z,3.10
2018-06-23T16:33:55.084Z,2.70
2018-06-23T16:36:12.116Z,2.70
2018-06-23T16:40:13.236Z,4.60
2018-06-23T16:45:08.278Z,2.90
2018-06-23T16:47:11.911Z,2.60
2018-06-23T16:48:54.381Z,2.30
2018-06-23T16:51:43.355Z,2.20
2018-06-23T17:00:27.997Z,1.40
